DECMH ENBO-ZZZZ

Flight info

Callsign DECMH
Flight time N/A
Altitude 1500
Route VFR/25 LT
Aircraft DA40

Departure

Time 2026-05-08 13:57
Airport Bodø Airport (ENBO)

Arrival

Time N/A
Airport ZZZZ
Time Latitude Longitude Altitude Speed Heading
2026-05-08 13:48 67.27108 14.35989 38 ft 0 kts 74°
2026-05-08 13:49 67.27108 14.35992 38 ft 1 kts 72°
2026-05-08 13:49 67.27108 14.36021 38 ft 1 kts 83°
2026-05-08 13:49 67.27108 14.36025 38 ft 0 kts 81°
2026-05-08 13:50 67.27109 14.36029 38 ft 1 kts 82°
2026-05-08 13:50 67.27108 14.36088 38 ft 3 kts 103°
2026-05-08 13:50 67.27094 14.36128 39 ft 4 kts 177°
2026-05-08 13:51 67.27046 14.36177 38 ft 9 kts 128°
2026-05-08 13:51 67.27039 14.36354 37 ft 10 kts 78°
2026-05-08 13:51 67.27049 14.36515 38 ft 8 kts 80°
2026-05-08 13:51 67.27060 14.36656 40 ft 8 kts 82°
2026-05-08 13:52 67.27070 14.36805 41 ft 8 kts 81°
2026-05-08 13:52 67.27083 14.36956 43 ft 9 kts 78°
2026-05-08 13:52 67.27095 14.37122 46 ft 9 kts 79°
2026-05-08 13:52 67.27107 14.37256 47 ft 7 kts 79°
2026-05-08 13:53 67.27120 14.37408 48 ft 10 kts 77°
2026-05-08 13:53 67.27136 14.37600 50 ft 12 kts 76°
2026-05-08 13:53 67.27155 14.37826 51 ft 14 kts 78°
2026-05-08 13:53 67.27160 14.38085 51 ft 14 kts 89°
2026-05-08 13:54 67.27159 14.38216 50 ft 0 kts 89°
2026-05-08 13:55 67.27110 14.38374 49 ft 12 kts 178°
2026-05-08 13:56 67.27065 14.38235 48 ft 0 kts 256°
2026-05-08 13:56 67.27059 14.38171 48 ft 19 kts 260°
2026-05-08 13:56 67.26989 14.37339 41 ft 72 kts 258°
2026-05-08 13:57 67.26854 14.35816 98 ft 96 kts 262°
2026-05-08 13:57 67.26710 14.34124 305 ft 96 kts 264°
2026-05-08 13:57 67.26587 14.32531 508 ft 87 kts 262°
2026-05-08 13:57 67.26425 14.30983 672 ft 97 kts 248°
2026-05-08 13:58 67.25895 14.29844 769 ft 103 kts 192°
2026-05-08 13:58 67.25204 14.29977 936 ft 100 kts 166°
2026-05-08 13:58 67.24506 14.30323 1049 ft 104 kts 165°
2026-05-08 13:58 67.23824 14.30863 1136 ft 101 kts 135°
2026-05-08 13:59 67.23702 14.32490 1162 ft 97 kts 75°
2026-05-08 13:59 67.23788 14.34230 1169 ft 100 kts 81°
2026-05-08 13:59 67.23866 14.36061 1138 ft 105 kts 81°
2026-05-08 13:59 67.23917 14.37937 1216 ft 101 kts 85°
2026-05-08 14:00 67.23929 14.39762 1199 ft 106 kts 85°
2026-05-08 14:00 67.23941 14.41671 1138 ft 108 kts 84°
2026-05-08 14:00 67.24030 14.43608 1068 ft 107 kts 70°
2026-05-08 14:00 67.24585 14.44750 972 ft 111 kts
2026-05-08 14:01 67.25315 14.44540 1014 ft 104 kts
2026-05-08 14:01 67.25792 14.44509 943 ft 101 kts
2026-05-08 14:01 67.26435 14.44517 698 ft 87 kts 359°
2026-05-08 14:01 67.27011 14.44203 450 ft 84 kts 343°
2026-05-08 14:02 67.27408 14.42588 360 ft 94 kts 267°
2026-05-08 14:02 67.27330 14.41467 252 ft 96 kts 264°
2026-05-08 14:02 67.27204 14.39942 104 ft 78 kts 264°
2026-05-08 14:02 67.27107 14.38717 49 ft 56 kts 256°
2026-05-08 14:03 67.27035 14.37890 46 ft 41 kts 258°
2026-05-08 14:03 67.26974 14.37122 39 ft 50 kts 256°
2026-05-08 14:03 67.26862 14.35849 36 ft 91 kts 254°
2026-05-08 14:03 67.26700 14.34205 237 ft 89 kts 259°
2026-05-08 14:04 67.26562 14.32642 441 ft 92 kts 255°
2026-05-08 14:04 67.26353 14.31004 622 ft 100 kts 246°
2026-05-08 14:04 67.25768 14.30209 827 ft 102 kts 172°
2026-05-08 14:04 67.25095 14.30427 1043 ft 98 kts 160°
2026-05-08 14:05 67.24435 14.30982 1146 ft 103 kts 148°
2026-05-08 14:05 67.23760 14.31580 1231 ft 103 kts 133°
2026-05-08 14:05 67.23662 14.33190 1355 ft 90 kts 74°
2026-05-08 14:05 67.23720 14.34842 1379 ft 95 kts 76°
2026-05-08 14:06 67.23833 14.36589 1377 ft 107 kts 75°
2026-05-08 14:06 67.23943 14.38592 1382 ft 114 kts 76°
2026-05-08 14:06 67.24046 14.40622 1439 ft 114 kts 77°
2026-05-08 14:06 67.24241 14.42685 1374 ft 121 kts 65°
2026-05-08 14:07 67.24604 14.44543 1312 ft 123 kts 55°
2026-05-08 14:07 67.24888 14.46624 1388 ft 119 kts 71°
2026-05-08 14:07 67.25372 14.48420 1153 ft 137 kts 30°
2026-05-08 14:07 67.26253 14.48644 1132 ft 122 kts 347°
2026-05-08 14:08 67.27042 14.48080 1063 ft 115 kts 345°
2026-05-08 14:08 67.27780 14.47373 934 ft 111 kts 316°
2026-05-08 14:08 67.27703 14.45604 788 ft 101 kts 253°
2026-05-08 14:08 67.27536 14.43857 494 ft 98 kts 256°
2026-05-08 14:09 67.27394 14.42287 306 ft 82 kts 261°
2026-05-08 14:09 67.27284 14.40901 195 ft 80 kts 259°
2026-05-08 14:09 67.27166 14.39490 71 ft 75 kts 260°
2026-05-08 14:09 67.27079 14.38377 49 ft 49 kts 257°
2026-05-08 14:10 67.27006 14.37510 43 ft 51 kts 258°
2026-05-08 14:10 67.26931 14.36595 35 ft 52 kts 258°
2026-05-08 14:10 67.26867 14.35838 32 ft 31 kts 264°
2026-05-08 14:10 67.26823 14.35315 30 ft 31 kts 254°
2026-05-08 14:11 67.26775 14.34747 28 ft 31 kts 259°
2026-05-08 14:11 67.26731 14.34226 26 ft 28 kts 258°
2026-05-08 14:11 67.26692 14.33791 25 ft 14 kts 238°
2026-05-08 14:11 67.26687 14.33719 25 ft 0 kts 80°
2026-05-08 14:12 67.26688 14.33728 25 ft 7 kts 77°
2026-05-08 14:12 67.26737 14.34345 27 ft 59 kts 78°
2026-05-08 14:12 67.26836 14.35669 75 ft 83 kts 75°
2026-05-08 14:12 67.26956 14.37165 220 ft 91 kts 75°
2026-05-08 14:13 67.27087 14.38786 397 ft 92 kts 77°
2026-05-08 14:13 67.27137 14.40408 595 ft 97 kts 110°
2026-05-08 14:13 67.26544 14.41274 675 ft 111 kts 173°
2026-05-08 14:13 67.25757 14.41528 765 ft 118 kts 172°
2026-05-08 14:14 67.24957 14.41378 947 ft 115 kts 222°
2026-05-08 14:14 67.24685 14.39501 1037 ft 114 kts 261°
2026-05-08 14:14 67.24541 14.37505 1106 ft 114 kts 268°
2026-05-08 14:14 67.24429 14.35430 1098 ft 125 kts 265°
2026-05-08 14:15 67.24380 14.33266 1070 ft 112 kts 274°
2026-05-08 14:15 67.24295 14.31025 975 ft 131 kts 258°
2026-05-08 14:15 67.24361 14.29069 930 ft 95 kts 335°
2026-05-08 14:15 67.24970 14.28678 720 ft 102 kts 352°
2026-05-08 14:16 67.25672 14.28280 667 ft 90 kts
2026-05-08 14:16 67.26150 14.29024 447 ft 85 kts 50°
2026-05-08 14:16 67.26413 14.30382 368 ft 85 kts 72°
2026-05-08 14:16 67.26511 14.31700 239 ft 69 kts 72°
2026-05-08 14:17 67.26613 14.32886 118 ft 65 kts 71°
2026-05-08 14:17 67.26705 14.33976 34 ft 58 kts 68°
2026-05-08 14:17 67.26780 14.34774 28 ft 40 kts 79°
2026-05-08 14:17 67.26841 14.35511 31 ft 34 kts 82°
2026-05-08 14:18 67.26902 14.35943 32 ft 16 kts 19°
2026-05-08 14:18 67.26993 14.35922 34 ft 12 kts 14°
2026-05-08 14:18 67.27071 14.35972 38 ft 10 kts 59°
2026-05-08 14:18 67.27074 14.36009 38 ft 1 kts 71°